sensor_id;sensor_type;location;lat;lon;timestamp;pressure;altitude;pressure_sealevel;temperature;humidity
27958;BME280;15295;42.658;23.374;2022-11-24T00:00:25;93533.50;;;13.02;51.06
27958;BME280;15295;42.658;23.374;2022-11-24T00:03:26;93542.03;;;13.04;51.32
27958;BME280;15295;42.658;23.374;2022-11-24T00:05:56;93511.97;;;12.88;51.38
27958;BME280;15295;42.658;23.374;2022-11-24T00:08:26;93523.91;;;12.94;51.53
27958;BME280;15295;42.658;23.374;2022-11-24T00:10:51;93527.34;;;12.98;51.31
27958;BME280;15295;42.658;23.374;2022-11-24T00:13:25;93533.50;;;13.02;51.32
27958;BME280;15295;42.658;23.374;2022-11-24T00:15:52;93556.91;;;13.06;51.52
27958;BME280;15295;42.658;23.374;2022-11-24T00:18:17;93559.47;;;12.97;51.49
27958;BME280;15295;42.658;23.374;2022-11-24T00:20:51;93552.34;;;13.00;51.46
27958;BME280;15295;42.658;23.374;2022-11-24T00:23:29;93530.75;;;12.89;51.44
27958;BME280;15295;42.658;23.374;2022-11-24T00:26:05;93546.09;;;12.99;51.59
27958;BME280;15295;42.658;23.374;2022-11-24T00:28:33;93555.84;;;13.00;51.64
27958;BME280;15295;42.658;23.374;2022-11-24T00:31:00;93534.03;;;12.97;51.63
27958;BME280;15295;42.658;23.374;2022-11-24T00:33:30;93550.81;;;12.99;51.66
27958;BME280;15295;42.658;23.374;2022-11-24T00:36:08;93539.38;;;12.88;51.73
27958;BME280;15295;42.658;23.374;2022-11-24T00:38:34;93551.59;;;12.99;51.96
27958;BME280;15295;42.658;23.374;2022-11-24T00:40:59;93546.88;;;13.00;51.88
27958;BME280;15295;42.658;23.374;2022-11-24T00:43:26;93565.13;;;13.06;51.81
27958;BME280;15295;42.658;23.374;2022-11-24T00:45:51;93540.63;;;12.99;51.50
27958;BME280;15295;42.658;23.374;2022-11-24T00:48:16;93549.75;;;13.09;51.80
27958;BME280;15295;42.658;23.374;2022-11-24T00:50:42;93546.66;;;13.07;51.71
27958;BME280;15295;42.658;23.374;2022-11-24T00:53:07;93573.78;;;13.18;51.62
27958;BME280;15295;42.658;23.374;2022-11-24T00:55:33;93567.91;;;13.03;51.74
27958;BME280;15295;42.658;23.374;2022-11-24T00:57:58;93562.31;;;12.94;51.77
27958;BME280;15295;42.658;23.374;2022-11-24T01:00:23;93564.00;;;13.04;51.64
27958;BME280;15295;42.658;23.374;2022-11-24T01:02:51;93570.25;;;13.04;51.89
27958;BME280;15295;42.658;23.374;2022-11-24T01:05:17;93580.25;;;13.11;51.66
27958;BME280;15295;42.658;23.374;2022-11-24T01:07:42;93579.59;;;13.07;51.84
27958;BME280;15295;42.658;23.374;2022-11-24T01:10:08;93567.59;;;13.01;51.89
27958;BME280;15295;42.658;23.374;2022-11-24T01:12:34;93541.78;;;12.86;51.91
27958;BME280;15295;42.658;23.374;2022-11-24T01:15:01;93567.16;;;13.02;51.89
27958;BME280;15295;42.658;23.374;2022-11-24T01:17:27;93569.72;;;13.09;52.01
27958;BME280;15295;42.658;23.374;2022-11-24T01:19:52;93561.03;;;13.11;51.73
27958;BME280;15295;42.658;23.374;2022-11-24T01:22:17;93567.53;;;13.17;51.63
27958;BME280;15295;42.658;23.374;2022-11-24T01:24:43;93566.53;;;13.11;51.85
27958;BME280;15295;42.658;23.374;2022-11-24T01:27:09;93566.97;;;13.09;51.70
27958;BME280;15295;42.658;23.374;2022-11-24T01:29:35;93563.38;;;13.12;51.63
27958;BME280;15295;42.658;23.374;2022-11-24T01:32:00;93555.66;;;13.07;51.69
27958;BME280;15295;42.658;23.374;2022-11-24T01:34:26;93554.66;;;13.01;51.63
27958;BME280;15295;42.658;23.374;2022-11-24T01:36:51;93559.16;;;12.95;51.76
27958;BME280;15295;42.658;23.374;2022-11-24T01:39:17;93554.63;;;12.89;51.98
27958;BME280;15295;42.658;23.374;2022-11-24T01:41:42;93580.44;;;13.04;51.86
27958;BME280;15295;42.658;23.374;2022-11-24T01:44:28;93574.97;;;13.04;52.00
27958;BME280;15295;42.658;23.374;2022-11-24T01:47:33;93578.44;;;12.92;51.61
27958;BME280;15295;42.658;23.374;2022-11-24T01:50:40;93571.94;;;12.86;51.92
27958;BME280;15295;42.658;23.374;2022-11-24T01:53:06;93573.28;;;12.94;51.74
27958;BME280;15295;42.658;23.374;2022-11-24T01:55:44;93575.50;;;12.99;51.86
27958;BME280;15295;42.658;23.374;2022-11-24T01:58:20;93558.03;;;12.93;51.66
27958;BME280;15295;42.658;23.374;2022-11-24T02:01:08;93564.41;;;13.02;51.81
27958;BME280;15295;42.658;23.374;2022-11-24T02:03:44;93569.81;;;13.06;51.62
27958;BME280;15295;42.658;23.374;2022-11-24T02:06:18;93571.34;;;13.07;51.55
27958;BME280;15295;42.658;23.374;2022-11-24T02:11:43;93554.91;;;13.20;51.47
27958;BME280;15295;42.658;23.374;2022-11-24T02:14:11;93569.84;;;13.31;51.46
27958;BME280;15295;42.658;23.374;2022-11-24T02:16:41;93552.59;;;13.18;51.15
27958;BME280;15295;42.658;23.374;2022-11-24T02:19:16;93540.00;;;13.08;51.26
27958;BME280;15295;42.658;23.374;2022-11-24T02:21:54;93575.78;;;13.30;50.92
27958;BME280;15295;42.658;23.374;2022-11-24T02:26:53;93575.31;;;13.19;50.95
27958;BME280;15295;42.658;23.374;2022-11-24T02:29:18;93566.53;;;13.11;51.11
27958;BME280;15295;42.658;23.374;2022-11-24T02:31:51;93579.06;;;13.25;50.86
27958;BME280;15295;42.658;23.374;2022-11-24T02:34:31;93561.16;;;13.20;50.85
27958;BME280;15295;42.658;23.374;2022-11-24T02:37:11;93575.00;;;13.29;50.90
27958;BME280;15295;42.658;23.374;2022-11-24T02:39:46;93578.41;;;13.33;50.55
27958;BME280;15295;42.658;23.374;2022-11-24T02:43:03;93578.84;;;13.32;50.60
27958;BME280;15295;42.658;23.374;2022-11-24T02:45:32;93568.19;;;13.21;50.77
27958;BME280;15295;42.658;23.374;2022-11-24T02:48:26;93587.16;;;13.28;50.48
27958;BME280;15295;42.658;23.374;2022-11-24T02:50:52;93591.25;;;13.24;50.58
27958;BME280;15295;42.658;23.374;2022-11-24T02:53:17;93579.38;;;13.14;50.58
27958;BME280;15295;42.658;23.374;2022-11-24T02:56:13;93583.31;;;13.13;50.92
27958;BME280;15295;42.658;23.374;2022-11-24T02:58:47;93582.00;;;13.05;51.12
27958;BME280;15295;42.658;23.374;2022-11-24T03:01:13;93578.13;;;13.02;51.14
27958;BME280;15295;42.658;23.374;2022-11-24T03:03:38;93586.13;;;12.97;51.25
27958;BME280;15295;42.658;23.374;2022-11-24T03:06:24;93574.03;;;12.82;51.32
27958;BME280;15295;42.658;23.374;2022-11-24T03:08:50;93574.81;;;12.82;51.24
27958;BME280;15295;42.658;23.374;2022-11-24T03:11:16;93586.44;;;12.86;51.03
27958;BME280;15295;42.658;23.374;2022-11-24T03:13:45;93593.34;;;12.91;51.14
27958;BME280;15295;42.658;23.374;2022-11-24T03:16:26;93569.63;;;12.72;51.07
27958;BME280;15295;42.658;23.374;2022-11-24T03:18:55;93593.34;;;12.91;51.29
27958;BME280;15295;42.658;23.374;2022-11-24T03:21:21;93595.75;;;12.89;51.25
27958;BME280;15295;42.658;23.374;2022-11-24T03:23:47;93588.59;;;12.79;51.13
27958;BME280;15295;42.658;23.374;2022-11-24T03:26:15;93598.84;;;12.91;51.13
27958;BME280;15295;42.658;23.374;2022-11-24T03:28:41;93593.09;;;12.85;50.77
27958;BME280;15295;42.658;23.374;2022-11-24T03:31:07;93608.78;;;12.72;50.90
27958;BME280;15295;42.658;23.374;2022-11-24T03:33:33;93605.16;;;12.75;50.82
27958;BME280;15295;42.658;23.374;2022-11-24T03:36:19;93614.66;;;12.71;50.91
27958;BME280;15295;42.658;23.374;2022-11-24T03:38:44;93619.16;;;12.65;50.90
27958;BME280;15295;42.658;23.374;2022-11-24T03:41:17;93617.53;;;12.67;50.87
27958;BME280;15295;42.658;23.374;2022-11-24T03:43:42;93602.31;;;12.50;50.88
27958;BME280;15295;42.658;23.374;2022-11-24T03:49:23;93621.13;;;12.64;51.11
27958;BME280;15295;42.658;23.374;2022-11-24T03:51:48;93625.84;;;12.64;50.91
27958;BME280;15295;42.658;23.374;2022-11-24T03:54:14;93630.88;;;12.65;51.30
27958;BME280;15295;42.658;23.374;2022-11-24T03:56:48;93639.34;;;12.71;51.19
27958;BME280;15295;42.658;23.374;2022-11-24T03:59:13;93625.47;;;12.62;51.34
27958;BME280;15295;42.658;23.374;2022-11-24T04:01:39;93645.09;;;12.76;51.25
27958;BME280;15295;42.658;23.374;2022-11-24T04:04:23;93640.34;;;12.77;51.37
27958;BME280;15295;42.658;23.374;2022-11-24T04:07:20;93649.06;;;12.88;51.42
27958;BME280;15295;42.658;23.374;2022-11-24T04:09:48;93646.53;;;12.81;51.49
27958;BME280;15295;42.658;23.374;2022-11-24T04:12:14;93627.53;;;12.74;51.27
27958;BME280;15295;42.658;23.374;2022-11-24T04:14:57;93643.00;;;12.80;51.37
27958;BME280;15295;42.658;23.374;2022-11-24T04:17:36;93654.53;;;12.88;51.44
27958;BME280;15295;42.658;23.374;2022-11-24T04:20:02;93640.44;;;12.73;51.67
27958;BME280;15295;42.658;23.374;2022-11-24T04:22:51;93654.66;;;12.84;51.62
27958;BME280;15295;42.658;23.374;2022-11-24T04:25:18;93650.00;;;12.81;51.64
27958;BME280;15295;42.658;23.374;2022-11-24T04:27:51;93660.13;;;12.84;51.76
27958;BME280;15295;42.658;23.374;2022-11-24T04:30:42;93659.00;;;12.82;51.61
27958;BME280;15295;42.658;23.374;2022-11-24T04:33:11;93670.66;;;12.86;51.69
27958;BME280;15295;42.658;23.374;2022-11-24T04:35:37;93674.69;;;12.81;51.65
27958;BME280;15295;42.658;23.374;2022-11-24T04:38:13;93678.31;;;12.78;51.75
27958;BME280;15295;42.658;23.374;2022-11-24T04:40:38;93668.09;;;12.79;51.71
27958;BME280;15295;42.658;23.374;2022-11-24T04:43:04;93646.88;;;12.67;51.71
27958;BME280;15295;42.658;23.374;2022-11-24T04:45:29;93669.66;;;12.80;52.06
27958;BME280;15295;42.658;23.374;2022-11-24T04:47:59;93674.28;;;12.83;52.08
27958;BME280;15295;42.658;23.374;2022-11-24T04:50:50;93677.34;;;12.85;51.84
27958;BME280;15295;42.658;23.374;2022-11-24T04:53:15;93682.16;;;12.81;52.07
27958;BME280;15295;42.658;23.374;2022-11-24T04:55:41;93677.53;;;12.78;51.94
27958;BME280;15295;42.658;23.374;2022-11-24T04:58:31;93676.25;;;12.82;51.89
27958;BME280;15295;42.658;23.374;2022-11-24T05:00:56;93648.97;;;12.63;51.96
27958;BME280;15295;42.658;23.374;2022-11-24T05:03:22;93684.28;;;12.89;51.89
27958;BME280;15295;42.658;23.374;2022-11-24T05:05:58;93686.59;;;12.91;51.87
27958;BME280;15295;42.658;23.374;2022-11-24T05:08:26;93678.03;;;12.89;51.75
27958;BME280;15295;42.658;23.374;2022-11-24T05:10:55;93692.22;;;13.00;51.76
27958;BME280;15295;42.658;23.374;2022-11-24T05:13:29;93694.97;;;13.00;51.97
27958;BME280;15295;42.658;23.374;2022-11-24T05:15:55;93697.38;;;12.98;51.88
27958;BME280;15295;42.658;23.374;2022-11-24T05:18:21;93693.06;;;12.97;52.00
27958;BME280;15295;42.658;23.374;2022-11-24T05:20:46;93695.03;;;12.96;52.10
27958;BME280;15295;42.658;23.374;2022-11-24T05:23:14;93699.94;;;13.05;52.38
27958;BME280;15295;42.658;23.374;2022-11-24T05:25:39;93699.50;;;13.06;52.19
27958;BME280;15295;42.658;23.374;2022-11-24T05:28:06;93700.94;;;13.11;52.26
27958;BME280;15295;42.658;23.374;2022-11-24T05:30:38;93694.78;;;13.07;52.31
27958;BME280;15295;42.658;23.374;2022-11-24T05:33:10;93704.78;;;13.13;52.31
27958;BME280;15295;42.658;23.374;2022-11-24T05:35:36;93704.38;;;13.15;52.68
27958;BME280;15295;42.658;23.374;2022-11-24T05:38:03;93700.84;;;13.14;52.57
27958;BME280;15295;42.658;23.374;2022-11-24T05:40:29;93709.41;;;13.17;52.58
27958;BME280;15295;42.658;23.374;2022-11-24T05:42:55;93712.72;;;13.24;52.46
27958;BME280;15295;42.658;23.374;2022-11-24T05:45:21;93713.50;;;13.25;52.13
27958;BME280;15295;42.658;23.374;2022-11-24T05:47:47;93716.00;;;13.19;52.16
27958;BME280;15295;42.658;23.374;2022-11-24T05:50:15;93715.69;;;13.17;52.42
27958;BME280;15295;42.658;23.374;2022-11-24T05:52:41;93719.09;;;13.21;52.12
27958;BME280;15295;42.658;23.374;2022-11-24T05:55:07;93714.44;;;13.18;52.07
27958;BME280;15295;42.658;23.374;2022-11-24T05:57:34;93699.75;;;13.12;51.81
27958;BME280;15295;42.658;23.374;2022-11-24T06:00:03;93718.97;;;13.25;52.04
27958;BME280;15295;42.658;23.374;2022-11-24T06:02:29;93719.31;;;13.27;52.01
27958;BME280;15295;42.658;23.374;2022-11-24T06:04:54;93719.66;;;13.29;52.11
27958;BME280;15295;42.658;23.374;2022-11-24T06:07:19;93729.31;;;13.33;52.21
27958;BME280;15295;42.658;23.374;2022-11-24T06:09:45;93733.84;;;13.40;52.05
27958;BME280;15295;42.658;23.374;2022-11-24T06:12:11;93717.56;;;13.33;52.04
27958;BME280;15295;42.658;23.374;2022-11-24T06:14:37;93724.94;;;13.36;52.15
27958;BME280;15295;42.658;23.374;2022-11-24T06:17:03;93736.28;;;13.50;52.14
27958;BME280;15295;42.658;23.374;2022-11-24T06:19:29;93729.81;;;13.57;52.17
27958;BME280;15295;42.658;23.374;2022-11-24T06:21:55;93739.81;;;13.63;52.38
27958;BME280;15295;42.658;23.374;2022-11-24T06:24:20;93740.69;;;13.73;52.44
27958;BME280;15295;42.658;23.374;2022-11-24T06:26:46;93738.41;;;13.71;52.11
27958;BME280;15295;42.658;23.374;2022-11-24T06:29:13;93742.47;;;13.79;51.88
27958;BME280;15295;42.658;23.374;2022-11-24T06:31:39;93742.38;;;13.83;51.53
27958;BME280;15295;42.658;23.374;2022-11-24T06:34:05;93752.59;;;13.95;51.45
27958;BME280;15295;42.658;23.374;2022-11-24T06:36:31;93758.66;;;14.03;51.20
27958;BME280;15295;42.658;23.374;2022-11-24T06:39:00;93744.03;;;13.93;50.93
27958;BME280;15295;42.658;23.374;2022-11-24T06:41:34;93765.47;;;14.11;51.05
27958;BME280;15295;42.658;23.374;2022-11-24T06:44:03;93767.44;;;14.10;51.46
27958;BME280;15295;42.658;23.374;2022-11-24T06:46:28;93767.34;;;14.14;51.58
27958;BME280;15295;42.658;23.374;2022-11-24T06:49:03;93791.72;;;14.24;51.53
27958;BME280;15295;42.658;23.374;2022-11-24T06:51:59;93782.63;;;14.15;51.72
27958;BME280;15295;42.658;23.374;2022-11-24T06:54:25;93800.25;;;14.30;51.42
27958;BME280;15295;42.658;23.374;2022-11-24T06:56:55;93801.56;;;14.38;51.10
27958;BME280;15295;42.658;23.374;2022-11-24T06:59:21;93807.06;;;14.38;50.64
27958;BME280;15295;42.658;23.374;2022-11-24T07:01:46;93809.34;;;14.39;50.23
27958;BME280;15295;42.658;23.374;2022-11-24T07:04:12;93816.41;;;14.40;50.31
27958;BME280;15295;42.658;23.374;2022-11-24T07:06:37;93813.44;;;14.35;50.25
27958;BME280;15295;42.658;23.374;2022-11-24T07:09:06;93819.69;;;14.35;50.13
27958;BME280;15295;42.658;23.374;2022-11-24T07:11:34;93824.31;;;14.38;49.87
27958;BME280;15295;42.658;23.374;2022-11-24T07:14:00;93833.88;;;14.34;49.74
27958;BME280;15295;42.658;23.374;2022-11-24T07:16:27;93834.00;;;14.30;49.75
27958;BME280;15295;42.658;23.374;2022-11-24T07:18:53;93847.75;;;14.30;49.95
27958;BME280;15295;42.658;23.374;2022-11-24T07:21:20;93841.13;;;14.28;49.62
27958;BME280;15295;42.658;23.374;2022-11-24T07:23:54;93848.25;;;14.25;49.80
27958;BME280;15295;42.658;23.374;2022-11-24T07:26:21;93838.44;;;14.24;50.02
27958;BME280;15295;42.658;23.374;2022-11-24T07:28:47;93843.53;;;14.26;50.22
27958;BME280;15295;42.658;23.374;2022-11-24T07:31:15;93845.50;;;14.25;50.03
27958;BME280;15295;42.658;23.374;2022-11-24T07:33:42;93840.13;;;14.22;50.33
27958;BME280;15295;42.658;23.374;2022-11-24T07:43:44;93859.03;;;14.20;50.16
27958;BME280;15295;42.658;23.374;2022-11-24T07:46:14;93854.59;;;14.10;50.40
27958;BME280;15295;42.658;23.374;2022-11-24T07:48:42;93860.75;;;14.14;50.61
27958;BME280;15295;42.658;23.374;2022-11-24T07:51:11;93847.34;;;14.16;50.73
27958;BME280;15295;42.658;23.374;2022-11-24T07:53:41;93868.00;;;14.20;50.77
27958;BME280;15295;42.658;23.374;2022-11-24T07:56:10;93880.44;;;14.25;50.43
27958;BME280;15295;42.658;23.374;2022-11-24T07:59:00;93879.78;;;14.21;50.32
27958;BME280;15295;42.658;23.374;2022-11-24T08:04:02;93886.75;;;13.97;50.96
27958;BME280;15295;42.658;23.374;2022-11-24T08:06:28;93874.84;;;13.74;51.40
27958;BME280;15295;42.658;23.374;2022-11-24T08:08:57;93889.75;;;13.73;51.51
27958;BME280;15295;42.658;23.374;2022-11-24T08:11:23;93891.59;;;13.64;51.39
27958;BME280;15295;42.658;23.374;2022-11-24T08:13:50;93872.00;;;13.49;51.71
27958;BME280;15295;42.658;23.374;2022-11-24T08:16:18;93845.69;;;13.20;51.75
27958;BME280;15295;42.658;23.374;2022-11-24T08:18:49;93909.72;;;13.45;51.96
27958;BME280;15295;42.658;23.374;2022-11-24T08:21:15;93893.28;;;13.13;52.22
27958;BME280;15295;42.658;23.374;2022-11-24T08:23:41;93916.19;;;13.23;52.37
27958;BME280;15295;42.658;23.374;2022-11-24T08:26:10;93916.63;;;13.21;52.41
27958;BME280;15295;42.658;23.374;2022-11-24T08:28:45;93923.44;;;13.13;52.90
27958;BME280;15295;42.658;23.374;2022-11-24T08:31:37;93923.66;;;13.06;52.92
27958;BME280;15295;42.658;23.374;2022-11-24T08:34:04;93926.97;;;12.97;53.09
27958;BME280;15295;42.658;23.374;2022-11-24T08:36:32;93931.75;;;12.93;52.88
27958;BME280;15295;42.658;23.374;2022-11-24T08:39:01;93929.59;;;12.85;52.87
27958;BME280;15295;42.658;23.374;2022-11-24T08:41:33;93915.88;;;12.69;52.93
27958;BME280;15295;42.658;23.374;2022-11-24T08:43:59;93936.72;;;12.82;53.24
27958;BME280;15295;42.658;23.374;2022-11-24T08:46:24;93940.56;;;12.85;53.57
27958;BME280;15295;42.658;23.374;2022-11-24T08:49:05;93917.56;;;12.63;53.67
27958;BME280;15295;42.658;23.374;2022-11-24T08:51:35;93916.97;;;12.55;53.07
27958;BME280;15295;42.658;23.374;2022-11-24T08:54:16;93953.47;;;12.68;52.44
27958;BME280;15295;42.658;23.374;2022-11-24T08:56:56;93940.50;;;12.53;52.92
27958;BME280;15295;42.658;23.374;2022-11-24T08:59:29;93907.66;;;12.33;53.10
27958;BME280;15295;42.658;23.374;2022-11-24T09:02:01;93907.19;;;12.18;52.93
27958;BME280;15295;42.658;23.374;2022-11-24T09:04:32;93923.28;;;12.16;52.91
27958;BME280;15295;42.658;23.374;2022-11-24T09:07:06;93954.59;;;12.35;53.68
27958;BME280;15295;42.658;23.374;2022-11-24T09:09:36;93928.97;;;12.06;53.87
27958;BME280;15295;42.658;23.374;2022-11-24T09:12:11;93938.72;;;12.07;54.04
27958;BME280;15295;42.658;23.374;2022-11-24T09:14:48;93948.84;;;12.10;53.55
27958;BME280;15295;42.658;23.374;2022-11-24T09:17:16;93920.31;;;11.88;54.35
27958;BME280;15295;42.658;23.374;2022-11-24T09:19:48;93971.09;;;12.31;54.16
27958;BME280;15295;42.658;23.374;2022-11-24T09:22:43;93948.06;;;12.09;53.87
27958;BME280;15295;42.658;23.374;2022-11-24T09:25:11;93943.75;;;12.08;53.14
27958;BME280;15295;42.658;23.374;2022-11-24T09:27:41;93933.09;;;11.94;52.79
27958;BME280;15295;42.658;23.374;2022-11-24T09:30:08;93969.69;;;12.23;52.94
27958;BME280;15295;42.658;23.374;2022-11-24T09:32:37;93947.94;;;12.16;52.30
27958;BME280;15295;42.658;23.374;2022-11-24T09:35:04;93939.19;;;12.21;52.31
27958;BME280;15295;42.658;23.374;2022-11-24T09:37:36;93927.13;;;12.19;51.58
27958;BME280;15295;42.658;23.374;2022-11-24T09:40:02;93924.94;;;12.10;51.21
27958;BME280;15295;42.658;23.374;2022-11-24T09:43:02;93941.19;;;12.21;50.97
27958;BME280;15295;42.658;23.374;2022-11-24T09:48:20;93971.28;;;12.40;50.54
27958;BME280;15295;42.658;23.374;2022-11-24T09:50:48;93939.53;;;12.23;50.79
27958;BME280;15295;42.658;23.374;2022-11-24T09:53:36;93957.41;;;12.31;50.52
27958;BME280;15295;42.658;23.374;2022-11-24T09:56:30;93929.50;;;12.17;49.63
27958;BME280;15295;42.658;23.374;2022-11-24T09:59:22;93966.88;;;12.27;49.92
27958;BME280;15295;42.658;23.374;2022-11-24T10:01:53;93982.06;;;12.12;49.63
27958;BME280;15295;42.658;23.374;2022-11-24T10:04:35;93972.38;;;12.07;49.43
27958;BME280;15295;42.658;23.374;2022-11-24T10:07:32;93941.44;;;11.87;49.38
27958;BME280;15295;42.658;23.374;2022-11-24T10:10:22;93948.84;;;11.90;49.00
27958;BME280;15295;42.658;23.374;2022-11-24T10:22:11;93985.72;;;12.05;48.98
27958;BME280;15295;42.658;23.374;2022-11-24T10:24:50;93991.66;;;12.00;49.35
27958;BME280;15295;42.658;23.374;2022-11-24T10:27:34;93941.47;;;11.64;49.63
27958;BME280;15295;42.658;23.374;2022-11-24T10:30:24;93972.25;;;11.72;48.86
27958;BME280;15295;42.658;23.374;2022-11-24T10:33:23;93990.13;;;11.76;48.90
27958;BME280;15295;42.658;23.374;2022-11-24T10:36:06;93977.03;;;11.64;49.37
27958;BME280;15295;42.658;23.374;2022-11-24T10:38:55;93983.56;;;11.74;49.40
27958;BME280;15295;42.658;23.374;2022-11-24T10:41:38;93946.34;;;11.53;48.95
27958;BME280;15295;42.658;23.374;2022-11-24T10:44:15;93972.97;;;11.52;48.54
27958;BME280;15295;42.658;23.374;2022-11-24T10:46:43;93971.75;;;11.53;48.75
27958;BME280;15295;42.658;23.374;2022-11-24T10:49:25;93956.00;;;11.38;48.81
27958;BME280;15295;42.658;23.374;2022-11-24T10:52:04;93979.91;;;11.57;49.11
27958;BME280;15295;42.658;23.374;2022-11-24T10:54:34;93995.50;;;11.60;48.67
27958;BME280;15295;42.658;23.374;2022-11-24T10:57:01;93982.47;;;11.44;48.69
27958;BME280;15295;42.658;23.374;2022-11-24T10:59:36;93958.81;;;11.34;48.60
27958;BME280;15295;42.658;23.374;2022-11-24T11:02:25;93981.88;;;11.56;48.46
27958;BME280;15295;42.658;23.374;2022-11-24T11:04:51;93975.97;;;11.58;48.22
27958;BME280;15295;42.658;23.374;2022-11-24T11:07:24;93986.56;;;11.56;48.08
27958;BME280;15295;42.658;23.374;2022-11-24T11:10:18;93992.16;;;11.72;47.95
27958;BME280;15295;42.658;23.374;2022-11-24T11:12:48;93964.56;;;11.63;47.63
27958;BME280;15295;42.658;23.374;2022-11-24T11:15:29;93978.72;;;11.81;47.62
27958;BME280;15295;42.658;23.374;2022-11-24T11:17:58;93957.81;;;11.71;47.36
27958;BME280;15295;42.658;23.374;2022-11-24T11:20:33;93991.84;;;11.90;47.86
27958;BME280;15295;42.658;23.374;2022-11-24T11:23:29;93982.97;;;12.05;47.14
27958;BME280;15295;42.658;23.374;2022-11-24T11:29:11;93948.38;;;11.72;46.99
27958;BME280;15295;42.658;23.374;2022-11-24T11:31:37;93979.03;;;11.87;46.80
27958;BME280;15295;42.658;23.374;2022-11-24T11:34:18;93994.66;;;11.86;46.67
27958;BME280;15295;42.658;23.374;2022-11-24T11:36:50;94006.59;;;11.96;47.02
27958;BME280;15295;42.658;23.374;2022-11-24T11:39:29;93962.31;;;11.58;46.81
27958;BME280;15295;42.658;23.374;2022-11-24T11:42:05;93989.03;;;11.74;47.11
27958;BME280;15295;42.658;23.374;2022-11-24T11:44:40;94004.78;;;11.66;47.27
27958;BME280;15295;42.658;23.374;2022-11-24T11:47:22;94008.41;;;11.59;47.31
27958;BME280;15295;42.658;23.374;2022-11-24T11:49:49;94005.06;;;11.48;47.30
27958;BME280;15295;42.658;23.374;2022-11-24T11:55:13;94004.94;;;11.55;46.83
27958;BME280;15295;42.658;23.374;2022-11-24T12:00:58;93977.72;;;11.25;47.29
27958;BME280;15295;42.658;23.374;2022-11-24T12:15:32;94032.88;;;11.70;47.32
27958;BME280;15295;42.658;23.374;2022-11-24T12:18:41;94024.19;;;11.75;47.25
27958;BME280;15295;42.658;23.374;2022-11-24T12:24:42;94029.00;;;11.91;46.42
27958;BME280;15295;42.658;23.374;2022-11-24T12:30:11;94027.28;;;12.20;46.37
27958;BME280;15295;42.658;23.374;2022-11-24T12:36:40;94024.47;;;12.23;44.83
27958;BME280;15295;42.658;23.374;2022-11-24T12:40:02;94031.38;;;12.31;45.08
27958;BME280;15295;42.658;23.374;2022-11-24T12:51:41;94039.06;;;12.17;44.46
27958;BME280;15295;42.658;23.374;2022-11-24T12:54:17;94031.97;;;12.19;45.26
27958;BME280;15295;42.658;23.374;2022-11-24T12:57:00;94038.47;;;12.29;44.02
27958;BME280;15295;42.658;23.374;2022-11-24T13:02:40;94026.59;;;12.16;43.72
27958;BME280;15295;42.658;23.374;2022-11-24T13:05:23;93985.56;;;11.93;44.21
27958;BME280;15295;42.658;23.374;2022-11-24T13:08:04;94003.63;;;12.10;43.70
27958;BME280;15295;42.658;23.374;2022-11-24T13:10:36;94028.25;;;12.49;43.04
27958;BME280;15295;42.658;23.374;2022-11-24T13:13:15;94038.75;;;12.90;42.76
27958;BME280;15295;42.658;23.374;2022-11-24T13:16:01;94048.47;;;13.14;42.31
27958;BME280;15295;42.658;23.374;2022-11-24T13:18:58;94053.31;;;13.58;41.56
27958;BME280;15295;42.658;23.374;2022-11-24T13:21:46;94039.22;;;14.05;40.77
27958;BME280;15295;42.658;23.374;2022-11-24T13:27:23;94042.63;;;14.09;40.46
27958;BME280;15295;42.658;23.374;2022-11-24T13:29:56;94027.56;;;13.52;40.32
27958;BME280;15295;42.658;23.374;2022-11-24T13:35:15;94019.22;;;13.07;40.76
27958;BME280;15295;42.658;23.374;2022-11-24T13:37:46;94023.56;;;13.05;40.99
27958;BME280;15295;42.658;23.374;2022-11-24T13:53:46;94021.25;;;12.28;42.03
27958;BME280;15295;42.658;23.374;2022-11-24T13:56:25;94024.47;;;12.23;41.81
27958;BME280;15295;42.658;23.374;2022-11-24T13:59:31;94059.97;;;12.50;42.92
27958;BME280;15295;42.658;23.374;2022-11-24T14:02:22;94068.28;;;12.47;41.94
27958;BME280;15295;42.658;23.374;2022-11-24T14:04:48;94038.81;;;12.31;42.07
27958;BME280;15295;42.658;23.374;2022-11-24T14:07:16;94047.03;;;12.31;41.62
27958;BME280;15295;42.658;23.374;2022-11-24T14:09:46;94063.13;;;12.29;41.71
27958;BME280;15295;42.658;23.374;2022-11-24T14:12:22;94077.03;;;12.38;42.08
27958;BME280;15295;42.658;23.374;2022-11-24T14:14:51;94077.03;;;12.38;42.31
27958;BME280;15295;42.658;23.374;2022-11-24T14:17:28;94077.09;;;12.34;42.56
27958;BME280;15295;42.658;23.374;2022-11-24T14:19:56;94052.84;;;12.13;42.40
27958;BME280;15295;42.658;23.374;2022-11-24T14:22:30;94033.44;;;12.04;42.53
27958;BME280;15295;42.658;23.374;2022-11-24T14:25:02;94088.69;;;12.22;42.73
27958;BME280;15295;42.658;23.374;2022-11-24T14:27:36;94076.59;;;12.20;42.72
27958;BME280;15295;42.658;23.374;2022-11-24T14:32:37;94042.00;;;11.87;42.45
27958;BME280;15295;42.658;23.374;2022-11-24T14:35:30;94078.09;;;12.01;42.72
27958;BME280;15295;42.658;23.374;2022-11-24T14:37:56;94043.59;;;11.84;42.61
27958;BME280;15295;42.658;23.374;2022-11-24T14:40:50;94082.09;;;11.97;42.50
27958;BME280;15295;42.658;23.374;2022-11-24T14:43:30;94076.63;;;11.97;42.40
27958;BME280;15295;42.658;23.374;2022-11-24T14:46:04;94084.41;;;11.98;42.58
27958;BME280;15295;42.658;23.374;2022-11-24T14:48:45;94047.50;;;11.83;42.29
27958;BME280;15295;42.658;23.374;2022-11-24T14:51:20;94078.03;;;12.05;42.25
27958;BME280;15295;42.658;23.374;2022-11-24T14:53:53;94061.09;;;11.90;42.07
27958;BME280;15295;42.658;23.374;2022-11-24T14:56:25;94076.00;;;12.09;42.23